UHHH/KHV METAR and TAF weather

Enter ICAO airport designator
Station Type Date Time Source
UHHH METAR 2018/12/13 22:00 UTC NOAA

UHHH 132200Z 20002MPS 160V220 CAVOK M22/M25 Q1026 R23L/090060 NOSIG RMK QFE763/1017


Station Type Date Time Source
UHHH Decoded METAR 2018/12/13 22:00 UTC NOAA

Habarovsk, Russia (UHHH) 48-31N 135-10E 76M
Dec 13, 2018 - 05:00 PM EST / 2018.12.13 2200 UTC
Wind: from the SSW (200 degrees) at 4 MPH (4 KT) (direction variable):0
Visibility: greater than 7 mile(s):0
Temperature: -7 F (-22 C)
Dew Point: -13 F (-25 C)
Relative Humidity: 76%
Pressure (altimeter): 30.30 in. Hg (1026 hPa)
ob: UHHH 132200Z 20002MPS 160V220 CAVOK M22/M25 Q1026 R23L/090060 NOSIG RMK QFE763/1017
cycle: 22

Station Type Date Time Source
UHHH TAF 2018/12/13 21:21 UTC NOAA

TAF TAF UHHH 131946Z 1321/1503 24008MPS CAVOK


Example: see airport list